sensor_id;sensor_type;location;lat;lon;timestamp;P1;durP1;ratioP1;P2;durP2;ratioP2
42294;SDS011;27947;47.556;18.718;2022-08-14T00:01:10;14.13;;;6.28;;
42294;SDS011;27947;47.556;18.718;2022-08-14T00:03:35;12.65;;;6.43;;
42294;SDS011;27947;47.556;18.718;2022-08-14T00:06:02;10.73;;;7.47;;
42294;SDS011;27947;47.556;18.718;2022-08-14T00:08:28;9.82;;;7.03;;
42294;SDS011;27947;47.556;18.718;2022-08-14T00:10:53;10.90;;;6.90;;
42294;SDS011;27947;47.556;18.718;2022-08-14T00:13:19;12.30;;;6.90;;
42294;SDS011;27947;47.556;18.718;2022-08-14T00:15:46;9.02;;;7.00;;
42294;SDS011;27947;47.556;18.718;2022-08-14T00:18:14;10.35;;;6.18;;
42294;SDS011;27947;47.556;18.718;2022-08-14T00:20:41;8.48;;;6.85;;
42294;SDS011;27947;47.556;18.718;2022-08-14T00:23:07;14.52;;;6.78;;
42294;SDS011;27947;47.556;18.718;2022-08-14T00:25:33;10.93;;;7.43;;
42294;SDS011;27947;47.556;18.718;2022-08-14T00:27:59;8.95;;;6.43;;
42294;SDS011;27947;47.556;18.718;2022-08-14T00:30:24;9.32;;;6.40;;
42294;SDS011;27947;47.556;18.718;2022-08-14T00:32:50;11.35;;;7.15;;
42294;SDS011;27947;47.556;18.718;2022-08-14T00:35:15;8.65;;;6.78;;
42294;SDS011;27947;47.556;18.718;2022-08-14T00:37:41;10.70;;;7.30;;
42294;SDS011;27947;47.556;18.718;2022-08-14T00:40:07;10.88;;;7.47;;
42294;SDS011;27947;47.556;18.718;2022-08-14T00:42:33;9.38;;;6.35;;
42294;SDS011;27947;47.556;18.718;2022-08-14T00:44:59;9.90;;;7.30;;
42294;SDS011;27947;47.556;18.718;2022-08-14T00:47:24;9.60;;;6.25;;
42294;SDS011;27947;47.556;18.718;2022-08-14T00:49:51;10.27;;;6.57;;
42294;SDS011;27947;47.556;18.718;2022-08-14T00:52:18;8.88;;;6.47;;
42294;SDS011;27947;47.556;18.718;2022-08-14T00:54:43;8.85;;;5.97;;
42294;SDS011;27947;47.556;18.718;2022-08-14T00:57:10;9.02;;;6.60;;
42294;SDS011;27947;47.556;18.718;2022-08-14T00:59:35;8.98;;;6.35;;
42294;SDS011;27947;47.556;18.718;2022-08-14T01:02:01;9.35;;;6.82;;
42294;SDS011;27947;47.556;18.718;2022-08-14T01:04:28;9.77;;;6.40;;
42294;SDS011;27947;47.556;18.718;2022-08-14T01:06:56;9.50;;;6.43;;
42294;SDS011;27947;47.556;18.718;2022-08-14T01:09:22;10.18;;;6.55;;
42294;SDS011;27947;47.556;18.718;2022-08-14T01:11:48;9.10;;;6.70;;
42294;SDS011;27947;47.556;18.718;2022-08-14T01:14:15;10.13;;;6.57;;
42294;SDS011;27947;47.556;18.718;2022-08-14T01:16:40;8.15;;;6.03;;
42294;SDS011;27947;47.556;18.718;2022-08-14T01:19:06;8.35;;;5.97;;
42294;SDS011;27947;47.556;18.718;2022-08-14T01:21:50;8.75;;;6.10;;
42294;SDS011;27947;47.556;18.718;2022-08-14T01:24:15;9.10;;;6.80;;
42294;SDS011;27947;47.556;18.718;2022-08-14T01:26:41;8.02;;;6.00;;
42294;SDS011;27947;47.556;18.718;2022-08-14T01:29:07;9.18;;;6.03;;
42294;SDS011;27947;47.556;18.718;2022-08-14T01:31:33;10.45;;;5.95;;
42294;SDS011;27947;47.556;18.718;2022-08-14T01:34:02;9.27;;;6.53;;
42294;SDS011;27947;47.556;18.718;2022-08-14T01:36:29;8.95;;;6.50;;
42294;SDS011;27947;47.556;18.718;2022-08-14T01:39:00;11.30;;;6.13;;
42294;SDS011;27947;47.556;18.718;2022-08-14T01:41:27;9.45;;;6.50;;
42294;SDS011;27947;47.556;18.718;2022-08-14T01:43:54;7.20;;;5.45;;
42294;SDS011;27947;47.556;18.718;2022-08-14T01:46:24;7.80;;;5.83;;
42294;SDS011;27947;47.556;18.718;2022-08-14T01:48:49;8.90;;;6.07;;
42294;SDS011;27947;47.556;18.718;2022-08-14T01:51:17;7.50;;;6.35;;
42294;SDS011;27947;47.556;18.718;2022-08-14T01:53:51;7.40;;;5.90;;
42294;SDS011;27947;47.556;18.718;2022-08-14T01:56:18;8.35;;;5.85;;
42294;SDS011;27947;47.556;18.718;2022-08-14T01:58:44;8.48;;;6.10;;
42294;SDS011;27947;47.556;18.718;2022-08-14T02:01:16;10.15;;;6.18;;
42294;SDS011;27947;47.556;18.718;2022-08-14T02:03:42;7.65;;;5.88;;
42294;SDS011;27947;47.556;18.718;2022-08-14T02:06:07;9.25;;;6.22;;
42294;SDS011;27947;47.556;18.718;2022-08-14T02:08:36;7.88;;;6.32;;
42294;SDS011;27947;47.556;18.718;2022-08-14T02:11:03;13.63;;;6.03;;
42294;SDS011;27947;47.556;18.718;2022-08-14T02:13:45;10.10;;;6.63;;
42294;SDS011;27947;47.556;18.718;2022-08-14T02:16:12;10.27;;;6.43;;
42294;SDS011;27947;47.556;18.718;2022-08-14T02:18:40;8.25;;;6.03;;
42294;SDS011;27947;47.556;18.718;2022-08-14T02:21:06;9.57;;;6.43;;
42294;SDS011;27947;47.556;18.718;2022-08-14T02:23:31;8.60;;;6.10;;
42294;SDS011;27947;47.556;18.718;2022-08-14T02:25:57;7.85;;;6.20;;
42294;SDS011;27947;47.556;18.718;2022-08-14T02:28:24;10.38;;;6.57;;
42294;SDS011;27947;47.556;18.718;2022-08-14T02:30:49;9.32;;;6.88;;
42294;SDS011;27947;47.556;18.718;2022-08-14T02:33:15;9.40;;;6.95;;
42294;SDS011;27947;47.556;18.718;2022-08-14T02:35:41;18.10;;;7.13;;
42294;SDS011;27947;47.556;18.718;2022-08-14T02:38:07;10.90;;;6.15;;
42294;SDS011;27947;47.556;18.718;2022-08-14T02:40:33;9.13;;;5.93;;
42294;SDS011;27947;47.556;18.718;2022-08-14T02:43:03;11.13;;;7.80;;
42294;SDS011;27947;47.556;18.718;2022-08-14T02:45:28;10.43;;;6.93;;
42294;SDS011;27947;47.556;18.718;2022-08-14T02:47:59;9.50;;;6.75;;
42294;SDS011;27947;47.556;18.718;2022-08-14T02:50:24;9.10;;;7.03;;
42294;SDS011;27947;47.556;18.718;2022-08-14T02:52:49;8.95;;;7.13;;
42294;SDS011;27947;47.556;18.718;2022-08-14T02:55:15;11.07;;;7.45;;
42294;SDS011;27947;47.556;18.718;2022-08-14T02:57:40;9.73;;;7.18;;
42294;SDS011;27947;47.556;18.718;2022-08-14T03:00:08;10.02;;;7.15;;
42294;SDS011;27947;47.556;18.718;2022-08-14T03:02:34;11.25;;;6.65;;
42294;SDS011;27947;47.556;18.718;2022-08-14T03:04:59;9.82;;;6.88;;
42294;SDS011;27947;47.556;18.718;2022-08-14T03:07:25;10.60;;;7.10;;
42294;SDS011;27947;47.556;18.718;2022-08-14T03:09:50;8.93;;;7.25;;
42294;SDS011;27947;47.556;18.718;2022-08-14T03:12:15;10.45;;;7.30;;
42294;SDS011;27947;47.556;18.718;2022-08-14T03:14:41;11.48;;;7.15;;
42294;SDS011;27947;47.556;18.718;2022-08-14T03:17:13;8.63;;;6.75;;
42294;SDS011;27947;47.556;18.718;2022-08-14T03:19:40;10.45;;;7.65;;
42294;SDS011;27947;47.556;18.718;2022-08-14T03:22:05;9.02;;;6.85;;
42294;SDS011;27947;47.556;18.718;2022-08-14T03:24:31;11.63;;;7.38;;
42294;SDS011;27947;47.556;18.718;2022-08-14T03:26:56;25.90;;;8.23;;
42294;SDS011;27947;47.556;18.718;2022-08-14T03:29:22;9.95;;;7.18;;
42294;SDS011;27947;47.556;18.718;2022-08-14T03:31:48;9.93;;;6.85;;
42294;SDS011;27947;47.556;18.718;2022-08-14T03:34:16;11.75;;;7.75;;
42294;SDS011;27947;47.556;18.718;2022-08-14T03:36:43;10.32;;;7.45;;
42294;SDS011;27947;47.556;18.718;2022-08-14T03:39:09;13.77;;;8.13;;
42294;SDS011;27947;47.556;18.718;2022-08-14T03:41:35;12.05;;;7.15;;
42294;SDS011;27947;47.556;18.718;2022-08-14T03:44:01;12.73;;;7.10;;
42294;SDS011;27947;47.556;18.718;2022-08-14T03:46:30;10.55;;;7.97;;
42294;SDS011;27947;47.556;18.718;2022-08-14T03:48:56;11.52;;;8.07;;
42294;SDS011;27947;47.556;18.718;2022-08-14T03:51:22;11.75;;;8.35;;
42294;SDS011;27947;47.556;18.718;2022-08-14T03:53:53;11.23;;;7.60;;
42294;SDS011;27947;47.556;18.718;2022-08-14T03:56:19;12.63;;;8.20;;
42294;SDS011;27947;47.556;18.718;2022-08-14T03:58:49;13.15;;;7.90;;
42294;SDS011;27947;47.556;18.718;2022-08-14T04:01:16;13.63;;;8.38;;
42294;SDS011;27947;47.556;18.718;2022-08-14T04:03:44;17.85;;;8.40;;
42294;SDS011;27947;47.556;18.718;2022-08-14T04:06:09;11.07;;;7.80;;
42294;SDS011;27947;47.556;18.718;2022-08-14T04:08:36;12.43;;;8.13;;
42294;SDS011;27947;47.556;18.718;2022-08-14T04:11:02;11.35;;;8.10;;
42294;SDS011;27947;47.556;18.718;2022-08-14T04:13:29;13.70;;;8.10;;
42294;SDS011;27947;47.556;18.718;2022-08-14T04:15:55;10.23;;;7.82;;
42294;SDS011;27947;47.556;18.718;2022-08-14T04:18:21;11.85;;;7.95;;
42294;SDS011;27947;47.556;18.718;2022-08-14T04:20:46;15.82;;;7.78;;
42294;SDS011;27947;47.556;18.718;2022-08-14T04:23:12;12.48;;;8.43;;
42294;SDS011;27947;47.556;18.718;2022-08-14T04:25:37;11.38;;;8.05;;
42294;SDS011;27947;47.556;18.718;2022-08-14T04:28:04;12.82;;;7.60;;
42294;SDS011;27947;47.556;18.718;2022-08-14T04:30:30;10.05;;;7.32;;
42294;SDS011;27947;47.556;18.718;2022-08-14T04:32:56;11.10;;;7.85;;
42294;SDS011;27947;47.556;18.718;2022-08-14T04:35:22;10.88;;;7.60;;
42294;SDS011;27947;47.556;18.718;2022-08-14T04:37:47;10.05;;;7.78;;
42294;SDS011;27947;47.556;18.718;2022-08-14T04:40:31;10.95;;;7.57;;
42294;SDS011;27947;47.556;18.718;2022-08-14T04:43:15;11.73;;;8.10;;
42294;SDS011;27947;47.556;18.718;2022-08-14T04:46:00;11.10;;;7.65;;
42294;SDS011;27947;47.556;18.718;2022-08-14T04:48:26;12.60;;;8.15;;
42294;SDS011;27947;47.556;18.718;2022-08-14T04:50:52;14.52;;;7.78;;
42294;SDS011;27947;47.556;18.718;2022-08-14T04:53:23;9.52;;;6.97;;
42294;SDS011;27947;47.556;18.718;2022-08-14T04:55:50;14.40;;;7.63;;
42294;SDS011;27947;47.556;18.718;2022-08-14T04:58:15;10.98;;;7.35;;
42294;SDS011;27947;47.556;18.718;2022-08-14T05:00:42;10.27;;;7.10;;
42294;SDS011;27947;47.556;18.718;2022-08-14T05:03:08;9.48;;;6.85;;
42294;SDS011;27947;47.556;18.718;2022-08-14T05:05:34;12.00;;;6.50;;
42294;SDS011;27947;47.556;18.718;2022-08-14T05:08:03;10.55;;;6.90;;
42294;SDS011;27947;47.556;18.718;2022-08-14T05:10:37;9.70;;;7.38;;
42294;SDS011;27947;47.556;18.718;2022-08-14T05:13:04;13.55;;;7.57;;
42294;SDS011;27947;47.556;18.718;2022-08-14T05:15:30;11.32;;;7.85;;
42294;SDS011;27947;47.556;18.718;2022-08-14T05:17:55;10.50;;;6.85;;
42294;SDS011;27947;47.556;18.718;2022-08-14T05:20:21;13.52;;;7.43;;
42294;SDS011;27947;47.556;18.718;2022-08-14T05:22:46;9.25;;;7.13;;
42294;SDS011;27947;47.556;18.718;2022-08-14T05:25:11;20.65;;;7.15;;
42294;SDS011;27947;47.556;18.718;2022-08-14T05:27:37;12.50;;;7.63;;
42294;SDS011;27947;47.556;18.718;2022-08-14T05:30:03;12.23;;;7.13;;
42294;SDS011;27947;47.556;18.718;2022-08-14T05:32:29;11.02;;;6.68;;
42294;SDS011;27947;47.556;18.718;2022-08-14T05:34:55;22.55;;;8.23;;
42294;SDS011;27947;47.556;18.718;2022-08-14T05:37:21;10.88;;;7.25;;
42294;SDS011;27947;47.556;18.718;2022-08-14T05:39:47;11.35;;;7.35;;
42294;SDS011;27947;47.556;18.718;2022-08-14T05:42:13;11.13;;;7.63;;
42294;SDS011;27947;47.556;18.718;2022-08-14T05:44:38;11.32;;;6.70;;
42294;SDS011;27947;47.556;18.718;2022-08-14T05:47:04;11.63;;;7.13;;
42294;SDS011;27947;47.556;18.718;2022-08-14T05:49:29;17.70;;;8.18;;
42294;SDS011;27947;47.556;18.718;2022-08-14T05:51:55;11.07;;;7.53;;
42294;SDS011;27947;47.556;18.718;2022-08-14T05:54:21;10.05;;;7.35;;
42294;SDS011;27947;47.556;18.718;2022-08-14T05:56:46;10.43;;;7.35;;
42294;SDS011;27947;47.556;18.718;2022-08-14T05:59:12;12.10;;;7.88;;
42294;SDS011;27947;47.556;18.718;2022-08-14T06:01:37;10.20;;;7.07;;
42294;SDS011;27947;47.556;18.718;2022-08-14T06:04:03;11.50;;;7.88;;
42294;SDS011;27947;47.556;18.718;2022-08-14T06:06:28;10.10;;;6.82;;
42294;SDS011;27947;47.556;18.718;2022-08-14T06:08:53;10.05;;;7.10;;
42294;SDS011;27947;47.556;18.718;2022-08-14T06:11:19;16.00;;;7.68;;
42294;SDS011;27947;47.556;18.718;2022-08-14T06:13:44;13.20;;;7.93;;
42294;SDS011;27947;47.556;18.718;2022-08-14T06:16:10;11.82;;;8.20;;
42294;SDS011;27947;47.556;18.718;2022-08-14T06:18:35;17.38;;;8.23;;
42294;SDS011;27947;47.556;18.718;2022-08-14T06:21:04;10.57;;;7.30;;
42294;SDS011;27947;47.556;18.718;2022-08-14T06:23:29;12.20;;;7.82;;
42294;SDS011;27947;47.556;18.718;2022-08-14T06:25:55;10.75;;;7.35;;
42294;SDS011;27947;47.556;18.718;2022-08-14T06:28:21;10.70;;;7.43;;
42294;SDS011;27947;47.556;18.718;2022-08-14T06:30:47;10.57;;;7.50;;
42294;SDS011;27947;47.556;18.718;2022-08-14T06:33:13;9.32;;;6.55;;
42294;SDS011;27947;47.556;18.718;2022-08-14T06:35:38;9.63;;;6.38;;
42294;SDS011;27947;47.556;18.718;2022-08-14T06:38:04;9.30;;;6.97;;
42294;SDS011;27947;47.556;18.718;2022-08-14T06:40:34;9.70;;;7.25;;
42294;SDS011;27947;47.556;18.718;2022-08-14T06:43:03;8.68;;;6.50;;
42294;SDS011;27947;47.556;18.718;2022-08-14T06:45:32;11.23;;;6.35;;
42294;SDS011;27947;47.556;18.718;2022-08-14T06:47:58;9.20;;;6.95;;
42294;SDS011;27947;47.556;18.718;2022-08-14T06:50:25;7.72;;;6.03;;
42294;SDS011;27947;47.556;18.718;2022-08-14T06:52:52;11.73;;;6.32;;
42294;SDS011;27947;47.556;18.718;2022-08-14T06:55:18;5.65;;;4.88;;
42294;SDS011;27947;47.556;18.718;2022-08-14T06:57:47;10.27;;;5.57;;
42294;SDS011;27947;47.556;18.718;2022-08-14T07:00:19;9.88;;;6.40;;
42294;SDS011;27947;47.556;18.718;2022-08-14T07:02:45;12.45;;;5.68;;
42294;SDS011;27947;47.556;18.718;2022-08-14T07:05:29;8.63;;;5.80;;
42294;SDS011;27947;47.556;18.718;2022-08-14T07:08:16;6.72;;;5.47;;
42294;SDS011;27947;47.556;18.718;2022-08-14T07:10:45;7.22;;;4.78;;
42294;SDS011;27947;47.556;18.718;2022-08-14T07:13:11;7.45;;;5.50;;
42294;SDS011;27947;47.556;18.718;2022-08-14T07:15:36;13.77;;;5.45;;
42294;SDS011;27947;47.556;18.718;2022-08-14T07:18:02;8.32;;;5.82;;
42294;SDS011;27947;47.556;18.718;2022-08-14T07:20:29;8.25;;;5.72;;
42294;SDS011;27947;47.556;18.718;2022-08-14T07:22:54;9.20;;;5.35;;
42294;SDS011;27947;47.556;18.718;2022-08-14T07:25:25;7.43;;;5.35;;
42294;SDS011;27947;47.556;18.718;2022-08-14T07:27:51;8.13;;;5.88;;
42294;SDS011;27947;47.556;18.718;2022-08-14T07:30:16;6.78;;;5.60;;
42294;SDS011;27947;47.556;18.718;2022-08-14T07:32:41;8.57;;;5.30;;
42294;SDS011;27947;47.556;18.718;2022-08-14T07:35:07;10.40;;;6.07;;
42294;SDS011;27947;47.556;18.718;2022-08-14T07:37:32;7.55;;;5.70;;
42294;SDS011;27947;47.556;18.718;2022-08-14T07:39:58;6.88;;;5.20;;
42294;SDS011;27947;47.556;18.718;2022-08-14T07:42:23;6.72;;;4.95;;
42294;SDS011;27947;47.556;18.718;2022-08-14T07:44:49;7.43;;;5.57;;
42294;SDS011;27947;47.556;18.718;2022-08-14T07:47:15;9.05;;;5.95;;
42294;SDS011;27947;47.556;18.718;2022-08-14T07:49:40;7.07;;;5.28;;
42294;SDS011;27947;47.556;18.718;2022-08-14T07:52:06;8.25;;;5.50;;
42294;SDS011;27947;47.556;18.718;2022-08-14T07:54:31;7.40;;;5.85;;
42294;SDS011;27947;47.556;18.718;2022-08-14T07:56:59;9.00;;;5.15;;
42294;SDS011;27947;47.556;18.718;2022-08-14T07:59:25;8.52;;;5.50;;
42294;SDS011;27947;47.556;18.718;2022-08-14T08:01:50;7.97;;;5.85;;
42294;SDS011;27947;47.556;18.718;2022-08-14T08:04:21;7.47;;;5.75;;
42294;SDS011;27947;47.556;18.718;2022-08-14T08:06:46;8.80;;;5.50;;
42294;SDS011;27947;47.556;18.718;2022-08-14T08:09:12;7.57;;;5.38;;
42294;SDS011;27947;47.556;18.718;2022-08-14T08:11:37;8.45;;;5.97;;
42294;SDS011;27947;47.556;18.718;2022-08-14T08:14:04;8.35;;;5.30;;
42294;SDS011;27947;47.556;18.718;2022-08-14T08:16:33;6.30;;;5.03;;
42294;SDS011;27947;47.556;18.718;2022-08-14T08:19:00;8.35;;;5.95;;
42294;SDS011;27947;47.556;18.718;2022-08-14T08:21:26;7.70;;;5.20;;
42294;SDS011;27947;47.556;18.718;2022-08-14T08:23:51;10.00;;;6.18;;
42294;SDS011;27947;47.556;18.718;2022-08-14T08:26:18;7.53;;;5.85;;
42294;SDS011;27947;47.556;18.718;2022-08-14T08:28:43;6.90;;;5.20;;
42294;SDS011;27947;47.556;18.718;2022-08-14T08:31:18;7.13;;;5.32;;
42294;SDS011;27947;47.556;18.718;2022-08-14T08:33:44;7.20;;;5.25;;
42294;SDS011;27947;47.556;18.718;2022-08-14T08:36:15;6.72;;;4.93;;
42294;SDS011;27947;47.556;18.718;2022-08-14T08:38:40;8.88;;;5.20;;
42294;SDS011;27947;47.556;18.718;2022-08-14T08:41:05;8.07;;;5.00;;
42294;SDS011;27947;47.556;18.718;2022-08-14T08:43:32;7.97;;;5.03;;
42294;SDS011;27947;47.556;18.718;2022-08-14T08:48:41;7.20;;;5.43;;
42294;SDS011;27947;47.556;18.718;2022-08-14T08:51:07;8.27;;;5.25;;
42294;SDS011;27947;47.556;18.718;2022-08-14T08:53:34;7.70;;;5.28;;
42294;SDS011;27947;47.556;18.718;2022-08-14T08:56:00;6.45;;;4.57;;
42294;SDS011;27947;47.556;18.718;2022-08-14T08:58:26;5.55;;;4.50;;
42294;SDS011;27947;47.556;18.718;2022-08-14T09:00:53;6.25;;;4.53;;
42294;SDS011;27947;47.556;18.718;2022-08-14T09:03:19;4.90;;;4.13;;
42294;SDS011;27947;47.556;18.718;2022-08-14T09:05:53;6.80;;;4.72;;
42294;SDS011;27947;47.556;18.718;2022-08-14T09:08:20;6.10;;;4.05;;
42294;SDS011;27947;47.556;18.718;2022-08-14T09:10:46;7.65;;;4.85;;
42294;SDS011;27947;47.556;18.718;2022-08-14T09:13:12;6.90;;;5.13;;
42294;SDS011;27947;47.556;18.718;2022-08-14T09:15:39;6.68;;;5.22;;
42294;SDS011;27947;47.556;18.718;2022-08-14T09:18:05;6.10;;;4.80;;
42294;SDS011;27947;47.556;18.718;2022-08-14T09:20:30;9.85;;;5.07;;
42294;SDS011;27947;47.556;18.718;2022-08-14T09:22:57;7.32;;;4.60;;
42294;SDS011;27947;47.556;18.718;2022-08-14T09:25:22;7.10;;;4.47;;
42294;SDS011;27947;47.556;18.718;2022-08-14T09:27:48;5.63;;;4.70;;
42294;SDS011;27947;47.556;18.718;2022-08-14T09:30:13;6.55;;;4.75;;
42294;SDS011;27947;47.556;18.718;2022-08-14T09:32:45;5.95;;;4.32;;
42294;SDS011;27947;47.556;18.718;2022-08-14T09:35:18;6.40;;;4.93;;
42294;SDS011;27947;47.556;18.718;2022-08-14T09:40:23;5.72;;;4.50;;
42294;SDS011;27947;47.556;18.718;2022-08-14T09:43:13;5.10;;;4.20;;
42294;SDS011;27947;47.556;18.718;2022-08-14T09:45:46;5.67;;;4.47;;
42294;SDS011;27947;47.556;18.718;2022-08-14T09:48:19;4.88;;;4.18;;
42294;SDS011;27947;47.556;18.718;2022-08-14T09:50:48;5.88;;;4.00;;
42294;SDS011;27947;47.556;18.718;2022-08-14T09:54:00;5.95;;;4.00;;
42294;SDS011;27947;47.556;18.718;2022-08-14T09:55:59;12.52;;;4.45;;
42294;SDS011;27947;47.556;18.718;2022-08-14T09:58:36;4.93;;;3.67;;
42294;SDS011;27947;47.556;18.718;2022-08-14T10:01:07;7.35;;;4.60;;
42294;SDS011;27947;47.556;18.718;2022-08-14T10:03:33;6.18;;;4.10;;
42294;SDS011;27947;47.556;18.718;2022-08-14T10:06:04;5.75;;;3.55;;
42294;SDS011;27947;47.556;18.718;2022-08-14T10:08:38;5.47;;;4.47;;
42294;SDS011;27947;47.556;18.718;2022-08-14T10:11:11;7.25;;;4.80;;
42294;SDS011;27947;47.556;18.718;2022-08-14T10:13:44;6.90;;;4.15;;
42294;SDS011;27947;47.556;18.718;2022-08-14T10:16:09;5.70;;;4.30;;
42294;SDS011;27947;47.556;18.718;2022-08-14T10:18:35;5.03;;;3.90;;
42294;SDS011;27947;47.556;18.718;2022-08-14T10:21:01;5.53;;;4.15;;
42294;SDS011;27947;47.556;18.718;2022-08-14T10:23:38;6.70;;;3.53;;
42294;SDS011;27947;47.556;18.718;2022-08-14T10:26:05;6.68;;;4.40;;
42294;SDS011;27947;47.556;18.718;2022-08-14T10:28:38;7.57;;;4.38;;
42294;SDS011;27947;47.556;18.718;2022-08-14T10:31:14;7.30;;;4.10;;
42294;SDS011;27947;47.556;18.718;2022-08-14T10:33:40;4.88;;;4.00;;
42294;SDS011;27947;47.556;18.718;2022-08-14T10:36:05;5.32;;;3.83;;
42294;SDS011;27947;47.556;18.718;2022-08-14T10:38:32;6.07;;;3.53;;
42294;SDS011;27947;47.556;18.718;2022-08-14T10:41:12;5.63;;;3.50;;
42294;SDS011;27947;47.556;18.718;2022-08-14T10:43:38;5.63;;;4.10;;
42294;SDS011;27947;47.556;18.718;2022-08-14T10:46:10;5.53;;;3.75;;
42294;SDS011;27947;47.556;18.718;2022-08-14T10:48:36;9.27;;;4.25;;
42294;SDS011;27947;47.556;18.718;2022-08-14T10:51:01;5.72;;;4.30;;
42294;SDS011;27947;47.556;18.718;2022-08-14T10:53:27;4.70;;;4.07;;
42294;SDS011;27947;47.556;18.718;2022-08-14T10:55:56;5.07;;;4.28;;
42294;SDS011;27947;47.556;18.718;2022-08-14T10:58:26;5.28;;;4.20;;
42294;SDS011;27947;47.556;18.718;2022-08-14T11:00:55;4.93;;;3.78;;
42294;SDS011;27947;47.556;18.718;2022-08-14T11:03:21;5.63;;;4.18;;
42294;SDS011;27947;47.556;18.718;2022-08-14T11:05:49;5.03;;;4.25;;
42294;SDS011;27947;47.556;18.718;2022-08-14T11:08:16;8.73;;;4.32;;
42294;SDS011;27947;47.556;18.718;2022-08-14T11:10:47;6.05;;;4.05;;
42294;SDS011;27947;47.556;18.718;2022-08-14T11:13:17;4.75;;;4.03;;
42294;SDS011;27947;47.556;18.718;2022-08-14T11:15:43;4.38;;;3.65;;
42294;SDS011;27947;47.556;18.718;2022-08-14T11:18:10;6.15;;;3.60;;
42294;SDS011;27947;47.556;18.718;2022-08-14T11:20:36;5.40;;;3.80;;
42294;SDS011;27947;47.556;18.718;2022-08-14T11:23:02;5.15;;;4.20;;
42294;SDS011;27947;47.556;18.718;2022-08-14T11:25:30;12.77;;;4.53;;
42294;SDS011;27947;47.556;18.718;2022-08-14T11:27:56;5.45;;;3.78;;
42294;SDS011;27947;47.556;18.718;2022-08-14T11:30:26;7.35;;;3.78;;
42294;SDS011;27947;47.556;18.718;2022-08-14T11:32:52;5.05;;;3.28;;
42294;SDS011;27947;47.556;18.718;2022-08-14T11:35:22;6.05;;;3.28;;
42294;SDS011;27947;47.556;18.718;2022-08-14T11:37:55;6.32;;;3.25;;
42294;SDS011;27947;47.556;18.718;2022-08-14T11:40:21;8.25;;;3.53;;
42294;SDS011;27947;47.556;18.718;2022-08-14T11:42:48;4.53;;;3.63;;
42294;SDS011;27947;47.556;18.718;2022-08-14T11:45:14;7.18;;;3.85;;
42294;SDS011;27947;47.556;18.718;2022-08-14T11:47:39;4.90;;;3.80;;
42294;SDS011;27947;47.556;18.718;2022-08-14T11:50:15;5.22;;;3.95;;
42294;SDS011;27947;47.556;18.718;2022-08-14T11:52:42;7.22;;;3.97;;
42294;SDS011;27947;47.556;18.718;2022-08-14T11:55:09;6.40;;;3.53;;
42294;SDS011;27947;47.556;18.718;2022-08-14T11:57:36;5.25;;;4.05;;
42294;SDS011;27947;47.556;18.718;2022-08-14T12:00:06;6.20;;;3.80;;
42294;SDS011;27947;47.556;18.718;2022-08-14T12:02:32;4.37;;;3.73;;
42294;SDS011;27947;47.556;18.718;2022-08-14T12:04:58;4.75;;;3.47;;
42294;SDS011;27947;47.556;18.718;2022-08-14T12:07:23;5.00;;;3.80;;
42294;SDS011;27947;47.556;18.718;2022-08-14T12:09:53;5.82;;;3.60;;
42294;SDS011;27947;47.556;18.718;2022-08-14T12:12:23;4.38;;;3.42;;
42294;SDS011;27947;47.556;18.718;2022-08-14T12:14:53;5.38;;;3.83;;
42294;SDS011;27947;47.556;18.718;2022-08-14T12:17:23;6.43;;;3.60;;
42294;SDS011;27947;47.556;18.718;2022-08-14T12:19:50;4.85;;;3.53;;
42294;SDS011;27947;47.556;18.718;2022-08-14T12:22:17;4.65;;;3.65;;
42294;SDS011;27947;47.556;18.718;2022-08-14T12:24:42;4.68;;;3.88;;
42294;SDS011;27947;47.556;18.718;2022-08-14T12:27:11;4.25;;;3.60;;
42294;SDS011;27947;47.556;18.718;2022-08-14T12:29:49;7.28;;;4.15;;
42294;SDS011;27947;47.556;18.718;2022-08-14T12:32:14;4.78;;;3.88;;
42294;SDS011;27947;47.556;18.718;2022-08-14T12:34:41;5.03;;;3.80;;
42294;SDS011;27947;47.556;18.718;2022-08-14T12:37:07;31.15;;;4.97;;
42294;SDS011;27947;47.556;18.718;2022-08-14T12:39:34;7.65;;;3.78;;
42294;SDS011;27947;47.556;18.718;2022-08-14T12:42:00;4.80;;;3.42;;
42294;SDS011;27947;47.556;18.718;2022-08-14T12:44:37;11.27;;;4.00;;
42294;SDS011;27947;47.556;18.718;2022-08-14T12:47:07;5.75;;;3.63;;
42294;SDS011;27947;47.556;18.718;2022-08-14T12:49:37;4.25;;;3.28;;
42294;SDS011;27947;47.556;18.718;2022-08-14T12:52:02;5.70;;;3.53;;
42294;SDS011;27947;47.556;18.718;2022-08-14T12:54:28;5.45;;;3.13;;
42294;SDS011;27947;47.556;18.718;2022-08-14T12:57:03;8.77;;;3.33;;
42294;SDS011;27947;47.556;18.718;2022-08-14T12:59:30;4.68;;;3.33;;
42294;SDS011;27947;47.556;18.718;2022-08-14T13:01:58;6.05;;;3.60;;
42294;SDS011;27947;47.556;18.718;2022-08-14T13:04:24;3.92;;;3.53;;
42294;SDS011;27947;47.556;18.718;2022-08-14T13:06:50;5.15;;;3.60;;
42294;SDS011;27947;47.556;18.718;2022-08-14T13:09:16;3.38;;;3.08;;
42294;SDS011;27947;47.556;18.718;2022-08-14T13:11:49;4.85;;;3.63;;
42294;SDS011;27947;47.556;18.718;2022-08-14T13:14:22;3.42;;;2.78;;
42294;SDS011;27947;47.556;18.718;2022-08-14T13:16:55;3.35;;;2.90;;
42294;SDS011;27947;47.556;18.718;2022-08-14T13:19:21;4.15;;;3.05;;
42294;SDS011;27947;47.556;18.718;2022-08-14T13:21:48;3.70;;;2.17;;
42294;SDS011;27947;47.556;18.718;2022-08-14T13:24:13;7.07;;;2.63;;
42294;SDS011;27947;47.556;18.718;2022-08-14T13:26:46;4.32;;;2.65;;
42294;SDS011;27947;47.556;18.718;2022-08-14T13:29:14;3.17;;;2.65;;
42294;SDS011;27947;47.556;18.718;2022-08-14T13:31:42;3.10;;;2.60;;
42294;SDS011;27947;47.556;18.718;2022-08-14T13:34:08;3.08;;;2.42;;
42294;SDS011;27947;47.556;18.718;2022-08-14T13:36:36;3.15;;;2.75;;
42294;SDS011;27947;47.556;18.718;2022-08-14T13:39:03;4.72;;;2.88;;
42294;SDS011;27947;47.556;18.718;2022-08-14T13:41:28;5.10;;;2.67;;
42294;SDS011;27947;47.556;18.718;2022-08-14T13:43:53;3.17;;;2.60;;
42294;SDS011;27947;47.556;18.718;2022-08-14T13:46:20;4.93;;;3.13;;
42294;SDS011;27947;47.556;18.718;2022-08-14T13:48:46;3.42;;;3.13;;
42294;SDS011;27947;47.556;18.718;2022-08-14T13:51:11;5.10;;;3.13;;
42294;SDS011;27947;47.556;18.718;2022-08-14T13:53:46;4.63;;;3.30;;
42294;SDS011;27947;47.556;18.718;2022-08-14T13:56:12;3.25;;;2.95;;
42294;SDS011;27947;47.556;18.718;2022-08-14T13:58:38;5.18;;;3.47;;
42294;SDS011;27947;47.556;18.718;2022-08-14T14:01:05;8.80;;;3.65;;
42294;SDS011;27947;47.556;18.718;2022-08-14T14:03:32;4.95;;;2.75;;
42294;SDS011;27947;47.556;18.718;2022-08-14T14:05:59;5.57;;;3.20;;
42294;SDS011;27947;47.556;18.718;2022-08-14T14:08:26;3.85;;;3.30;;
42294;SDS011;27947;47.556;18.718;2022-08-14T14:10:53;5.80;;;3.92;;
42294;SDS011;27947;47.556;18.718;2022-08-14T14:13:19;7.28;;;3.08;;
42294;SDS011;27947;47.556;18.718;2022-08-14T14:15:46;5.40;;;3.55;;
42294;SDS011;27947;47.556;18.718;2022-08-14T14:18:12;3.65;;;2.88;;
42294;SDS011;27947;47.556;18.718;2022-08-14T14:20:41;3.67;;;3.05;;
42294;SDS011;27947;47.556;18.718;2022-08-14T14:23:07;6.80;;;3.28;;
42294;SDS011;27947;47.556;18.718;2022-08-14T14:25:37;3.97;;;3.30;;
42294;SDS011;27947;47.556;18.718;2022-08-14T14:28:06;3.65;;;2.70;;
42294;SDS011;27947;47.556;18.718;2022-08-14T14:30:32;4.13;;;2.65;;
42294;SDS011;27947;47.556;18.718;2022-08-14T14:32:58;5.20;;;3.28;;
42294;SDS011;27947;47.556;18.718;2022-08-14T14:35:23;5.72;;;3.25;;
42294;SDS011;27947;47.556;18.718;2022-08-14T14:37:49;5.40;;;3.28;;